sensor_id;sensor_type;location;lat;lon;timestamp;temperature;humidity
4695;DHT22;2361;49.540;8.390;2023-08-30T00:01:13;16.90;99.90
4695;DHT22;2361;49.540;8.390;2023-08-30T00:03:40;16.90;99.90
4695;DHT22;2361;49.540;8.390;2023-08-30T00:06:07;16.90;99.90
4695;DHT22;2361;49.540;8.390;2023-08-30T00:08:34;16.90;99.90
4695;DHT22;2361;49.540;8.390;2023-08-30T00:11:02;16.90;99.90
4695;DHT22;2361;49.540;8.390;2023-08-30T00:13:31;16.90;99.90
4695;DHT22;2361;49.540;8.390;2023-08-30T00:16:02;16.90;99.90
4695;DHT22;2361;49.540;8.390;2023-08-30T00:18:30;17.00;99.90
4695;DHT22;2361;49.540;8.390;2023-08-30T00:20:58;17.00;99.90
4695;DHT22;2361;49.540;8.390;2023-08-30T00:23:25;17.00;99.90
4695;DHT22;2361;49.540;8.390;2023-08-30T00:25:52;17.10;99.90
4695;DHT22;2361;49.540;8.390;2023-08-30T00:28:18;17.10;99.90
4695;DHT22;2361;49.540;8.390;2023-08-30T00:30:45;17.10;99.90
4695;DHT22;2361;49.540;8.390;2023-08-30T00:33:13;17.10;99.90
4695;DHT22;2361;49.540;8.390;2023-08-30T00:35:40;17.10;99.90
4695;DHT22;2361;49.540;8.390;2023-08-30T00:38:07;17.10;99.90
4695;DHT22;2361;49.540;8.390;2023-08-30T00:40:40;17.10;99.90
4695;DHT22;2361;49.540;8.390;2023-08-30T00:43:07;17.10;99.90
4695;DHT22;2361;49.540;8.390;2023-08-30T00:45:35;17.10;99.90
4695;DHT22;2361;49.540;8.390;2023-08-30T00:48:05;17.10;99.90
4695;DHT22;2361;49.540;8.390;2023-08-30T00:50:34;17.00;99.90
4695;DHT22;2361;49.540;8.390;2023-08-30T00:53:02;17.00;99.90
4695;DHT22;2361;49.540;8.390;2023-08-30T00:55:36;17.00;99.90
4695;DHT22;2361;49.540;8.390;2023-08-30T00:58:04;17.00;99.90
4695;DHT22;2361;49.540;8.390;2023-08-30T01:00:33;17.00;99.90
4695;DHT22;2361;49.540;8.390;2023-08-30T01:03:00;17.00;99.90
4695;DHT22;2361;49.540;8.390;2023-08-30T01:05:27;16.90;99.90
4695;DHT22;2361;49.540;8.390;2023-08-30T01:07:54;16.90;99.90
4695;DHT22;2361;49.540;8.390;2023-08-30T01:10:26;16.90;99.90
4695;DHT22;2361;49.540;8.390;2023-08-30T01:13:06;16.90;99.90
4695;DHT22;2361;49.540;8.390;2023-08-30T01:15:37;16.90;99.90
4695;DHT22;2361;49.540;8.390;2023-08-30T01:18:05;16.80;99.90
4695;DHT22;2361;49.540;8.390;2023-08-30T01:20:36;16.80;99.90
4695;DHT22;2361;49.540;8.390;2023-08-30T01:23:24;16.80;99.90
4695;DHT22;2361;49.540;8.390;2023-08-30T01:28:54;16.80;99.90
4695;DHT22;2361;49.540;8.390;2023-08-30T01:31:25;16.80;99.90
4695;DHT22;2361;49.540;8.390;2023-08-30T01:33:53;16.80;99.90
4695;DHT22;2361;49.540;8.390;2023-08-30T01:36:22;16.80;99.90
4695;DHT22;2361;49.540;8.390;2023-08-30T01:38:50;16.70;99.90
4695;DHT22;2361;49.540;8.390;2023-08-30T01:41:18;16.80;99.90
4695;DHT22;2361;49.540;8.390;2023-08-30T01:43:46;16.70;99.90
4695;DHT22;2361;49.540;8.390;2023-08-30T01:46:15;16.70;99.90
4695;DHT22;2361;49.540;8.390;2023-08-30T01:48:47;16.70;99.90
4695;DHT22;2361;49.540;8.390;2023-08-30T01:51:16;16.70;99.90
4695;DHT22;2361;49.540;8.390;2023-08-30T01:53:44;16.70;99.90
4695;DHT22;2361;49.540;8.390;2023-08-30T01:56:12;16.70;99.90
4695;DHT22;2361;49.540;8.390;2023-08-30T01:58:39;16.80;99.90
4695;DHT22;2361;49.540;8.390;2023-08-30T02:01:06;16.70;99.90
4695;DHT22;2361;49.540;8.390;2023-08-30T02:03:34;16.70;99.90
4695;DHT22;2361;49.540;8.390;2023-08-30T02:06:11;16.70;99.90
4695;DHT22;2361;49.540;8.390;2023-08-30T02:08:46;16.70;99.90
4695;DHT22;2361;49.540;8.390;2023-08-30T02:11:28;16.70;99.90
4695;DHT22;2361;49.540;8.390;2023-08-30T02:13:58;16.60;99.90
4695;DHT22;2361;49.540;8.390;2023-08-30T02:16:26;16.60;99.90
4695;DHT22;2361;49.540;8.390;2023-08-30T02:18:55;16.60;99.90
4695;DHT22;2361;49.540;8.390;2023-08-30T02:21:22;16.70;99.90
4695;DHT22;2361;49.540;8.390;2023-08-30T02:23:50;16.60;99.90
4695;DHT22;2361;49.540;8.390;2023-08-30T02:26:19;16.60;99.90
4695;DHT22;2361;49.540;8.390;2023-08-30T02:28:46;16.70;99.90
4695;DHT22;2361;49.540;8.390;2023-08-30T02:31:13;16.60;99.90
4695;DHT22;2361;49.540;8.390;2023-08-30T02:33:40;16.60;99.90
4695;DHT22;2361;49.540;8.390;2023-08-30T02:36:07;16.60;99.90
4695;DHT22;2361;49.540;8.390;2023-08-30T02:38:34;16.60;99.90
4695;DHT22;2361;49.540;8.390;2023-08-30T02:41:01;16.60;99.90
4695;DHT22;2361;49.540;8.390;2023-08-30T02:43:28;16.60;99.90
4695;DHT22;2361;49.540;8.390;2023-08-30T02:45:55;16.60;99.90
4695;DHT22;2361;49.540;8.390;2023-08-30T02:48:22;16.70;99.90
4695;DHT22;2361;49.540;8.390;2023-08-30T02:50:49;16.70;99.90
4695;DHT22;2361;49.540;8.390;2023-08-30T02:53:16;16.70;99.90
4695;DHT22;2361;49.540;8.390;2023-08-30T02:55:43;16.60;99.90
4695;DHT22;2361;49.540;8.390;2023-08-30T02:58:10;16.70;99.90
4695;DHT22;2361;49.540;8.390;2023-08-30T03:00:37;16.70;99.90
4695;DHT22;2361;49.540;8.390;2023-08-30T03:03:04;16.70;99.90
4695;DHT22;2361;49.540;8.390;2023-08-30T03:05:31;16.60;99.90
4695;DHT22;2361;49.540;8.390;2023-08-30T03:07:58;16.60;99.90
4695;DHT22;2361;49.540;8.390;2023-08-30T03:10:25;16.60;99.90
4695;DHT22;2361;49.540;8.390;2023-08-30T03:12:52;16.60;99.90
4695;DHT22;2361;49.540;8.390;2023-08-30T03:15:19;16.60;99.90
4695;DHT22;2361;49.540;8.390;2023-08-30T03:17:46;16.60;99.90
4695;DHT22;2361;49.540;8.390;2023-08-30T03:20:13;16.60;99.90
4695;DHT22;2361;49.540;8.390;2023-08-30T03:22:40;16.60;99.90
4695;DHT22;2361;49.540;8.390;2023-08-30T03:25:07;16.60;99.90
4695;DHT22;2361;49.540;8.390;2023-08-30T03:27:35;16.70;99.90
4695;DHT22;2361;49.540;8.390;2023-08-30T03:30:03;16.70;99.90
4695;DHT22;2361;49.540;8.390;2023-08-30T03:32:30;16.60;99.90
4695;DHT22;2361;49.540;8.390;2023-08-30T03:34:59;16.60;99.90
4695;DHT22;2361;49.540;8.390;2023-08-30T03:37:26;16.60;99.90
4695;DHT22;2361;49.540;8.390;2023-08-30T03:39:53;16.60;99.90
4695;DHT22;2361;49.540;8.390;2023-08-30T03:42:19;16.60;99.90
4695;DHT22;2361;49.540;8.390;2023-08-30T03:44:46;16.60;99.90
4695;DHT22;2361;49.540;8.390;2023-08-30T03:47:13;16.60;99.90
4695;DHT22;2361;49.540;8.390;2023-08-30T03:49:40;16.60;99.90
4695;DHT22;2361;49.540;8.390;2023-08-30T03:52:07;16.50;99.90
4695;DHT22;2361;49.540;8.390;2023-08-30T03:54:34;16.50;99.90
4695;DHT22;2361;49.540;8.390;2023-08-30T03:57:01;16.50;99.90
4695;DHT22;2361;49.540;8.390;2023-08-30T03:59:28;16.50;99.90
4695;DHT22;2361;49.540;8.390;2023-08-30T04:01:55;16.50;99.90
4695;DHT22;2361;49.540;8.390;2023-08-30T04:04:22;16.50;99.90
4695;DHT22;2361;49.540;8.390;2023-08-30T04:06:49;16.50;99.90
4695;DHT22;2361;49.540;8.390;2023-08-30T04:09:16;16.40;99.90
4695;DHT22;2361;49.540;8.390;2023-08-30T04:11:44;16.50;99.90
4695;DHT22;2361;49.540;8.390;2023-08-30T04:14:11;16.40;99.90
4695;DHT22;2361;49.540;8.390;2023-08-30T04:16:38;16.40;99.90
4695;DHT22;2361;49.540;8.390;2023-08-30T04:19:05;16.40;99.90
4695;DHT22;2361;49.540;8.390;2023-08-30T04:21:31;16.40;99.90
4695;DHT22;2361;49.540;8.390;2023-08-30T04:23:59;16.30;99.90
4695;DHT22;2361;49.540;8.390;2023-08-30T04:26:25;16.30;99.90
4695;DHT22;2361;49.540;8.390;2023-08-30T04:28:52;16.20;99.90
4695;DHT22;2361;49.540;8.390;2023-08-30T04:31:19;16.20;99.90
4695;DHT22;2361;49.540;8.390;2023-08-30T04:33:46;16.20;99.90
4695;DHT22;2361;49.540;8.390;2023-08-30T04:36:13;16.20;99.90
4695;DHT22;2361;49.540;8.390;2023-08-30T04:38:40;16.30;99.90
4695;DHT22;2361;49.540;8.390;2023-08-30T04:41:22;16.20;99.90
4695;DHT22;2361;49.540;8.390;2023-08-30T04:43:49;16.20;99.90
4695;DHT22;2361;49.540;8.390;2023-08-30T04:46:16;16.20;99.90
4695;DHT22;2361;49.540;8.390;2023-08-30T04:48:42;16.20;99.90
4695;DHT22;2361;49.540;8.390;2023-08-30T04:51:09;16.20;99.90
4695;DHT22;2361;49.540;8.390;2023-08-30T04:53:36;16.20;99.90
4695;DHT22;2361;49.540;8.390;2023-08-30T04:56:13;16.10;99.90
4695;DHT22;2361;49.540;8.390;2023-08-30T04:58:40;16.20;99.90
4695;DHT22;2361;49.540;8.390;2023-08-30T05:01:07;16.10;99.90
4695;DHT22;2361;49.540;8.390;2023-08-30T05:03:35;16.20;99.90
4695;DHT22;2361;49.540;8.390;2023-08-30T05:06:02;16.10;99.90
4695;DHT22;2361;49.540;8.390;2023-08-30T05:08:29;16.20;99.90
4695;DHT22;2361;49.540;8.390;2023-08-30T05:10:56;16.20;99.90
4695;DHT22;2361;49.540;8.390;2023-08-30T05:13:23;16.20;99.90
4695;DHT22;2361;49.540;8.390;2023-08-30T05:15:50;16.20;99.90
4695;DHT22;2361;49.540;8.390;2023-08-30T05:18:19;16.20;99.90
4695;DHT22;2361;49.540;8.390;2023-08-30T05:20:46;16.20;99.90
4695;DHT22;2361;49.540;8.390;2023-08-30T05:23:13;16.20;99.90
4695;DHT22;2361;49.540;8.390;2023-08-30T05:25:40;16.30;99.90
4695;DHT22;2361;49.540;8.390;2023-08-30T05:28:07;16.30;99.90
4695;DHT22;2361;49.540;8.390;2023-08-30T05:30:34;16.30;99.90
4695;DHT22;2361;49.540;8.390;2023-08-30T05:33:01;16.40;99.90
4695;DHT22;2361;49.540;8.390;2023-08-30T05:35:29;16.40;99.90
4695;DHT22;2361;49.540;8.390;2023-08-30T05:37:56;16.40;99.90
4695;DHT22;2361;49.540;8.390;2023-08-30T05:40:22;16.40;99.90
4695;DHT22;2361;49.540;8.390;2023-08-30T05:42:51;16.40;99.90
4695;DHT22;2361;49.540;8.390;2023-08-30T05:45:20;16.40;99.90
4695;DHT22;2361;49.540;8.390;2023-08-30T05:47:47;16.40;99.90
4695;DHT22;2361;49.540;8.390;2023-08-30T05:50:14;16.40;99.90
4695;DHT22;2361;49.540;8.390;2023-08-30T05:52:41;16.50;99.90
4695;DHT22;2361;49.540;8.390;2023-08-30T05:55:11;16.60;99.90
4695;DHT22;2361;49.540;8.390;2023-08-30T05:57:38;16.80;99.90
4695;DHT22;2361;49.540;8.390;2023-08-30T06:00:05;16.90;99.90
4695;DHT22;2361;49.540;8.390;2023-08-30T06:02:34;17.00;99.90
4695;DHT22;2361;49.540;8.390;2023-08-30T06:05:01;17.00;99.90
4695;DHT22;2361;49.540;8.390;2023-08-30T06:07:29;17.10;99.90
4695;DHT22;2361;49.540;8.390;2023-08-30T06:09:56;17.10;99.90
4695;DHT22;2361;49.540;8.390;2023-08-30T06:12:25;17.10;99.90
4695;DHT22;2361;49.540;8.390;2023-08-30T06:14:52;17.20;99.90
4695;DHT22;2361;49.540;8.390;2023-08-30T06:17:20;17.30;99.90
4695;DHT22;2361;49.540;8.390;2023-08-30T06:19:47;17.50;99.90
4695;DHT22;2361;49.540;8.390;2023-08-30T06:22:15;17.70;99.90
4695;DHT22;2361;49.540;8.390;2023-08-30T06:24:42;18.10;99.90
4695;DHT22;2361;49.540;8.390;2023-08-30T06:27:09;18.50;99.90
4695;DHT22;2361;49.540;8.390;2023-08-30T06:29:36;18.80;99.90
4695;DHT22;2361;49.540;8.390;2023-08-30T06:32:03;19.10;99.90
4695;DHT22;2361;49.540;8.390;2023-08-30T06:34:30;19.40;99.90
4695;DHT22;2361;49.540;8.390;2023-08-30T06:36:57;19.60;99.90
4695;DHT22;2361;49.540;8.390;2023-08-30T06:39:24;19.80;99.90
4695;DHT22;2361;49.540;8.390;2023-08-30T06:41:51;19.90;99.90
4695;DHT22;2361;49.540;8.390;2023-08-30T06:44:18;20.10;99.90
4695;DHT22;2361;49.540;8.390;2023-08-30T06:46:45;20.30;99.90
4695;DHT22;2361;49.540;8.390;2023-08-30T06:49:12;20.50;99.90
4695;DHT22;2361;49.540;8.390;2023-08-30T06:51:39;20.60;99.90
4695;DHT22;2361;49.540;8.390;2023-08-30T06:54:07;20.70;99.90
4695;DHT22;2361;49.540;8.390;2023-08-30T06:56:34;20.80;99.90
4695;DHT22;2361;49.540;8.390;2023-08-30T06:59:00;21.00;99.90
4695;DHT22;2361;49.540;8.390;2023-08-30T07:01:27;21.10;99.90
4695;DHT22;2361;49.540;8.390;2023-08-30T07:03:54;21.10;99.90
4695;DHT22;2361;49.540;8.390;2023-08-30T07:06:21;21.20;99.90
4695;DHT22;2361;49.540;8.390;2023-08-30T07:08:48;21.50;99.90
4695;DHT22;2361;49.540;8.390;2023-08-30T07:11:15;21.70;99.90
4695;DHT22;2361;49.540;8.390;2023-08-30T07:13:59;21.90;99.90
4695;DHT22;2361;49.540;8.390;2023-08-30T07:16:26;22.10;99.90
4695;DHT22;2361;49.540;8.390;2023-08-30T07:18:53;22.20;99.90
4695;DHT22;2361;49.540;8.390;2023-08-30T07:21:20;22.40;99.90
4695;DHT22;2361;49.540;8.390;2023-08-30T07:23:47;22.40;99.90
4695;DHT22;2361;49.540;8.390;2023-08-30T07:26:14;22.50;99.90
4695;DHT22;2361;49.540;8.390;2023-08-30T07:28:41;22.60;99.90
4695;DHT22;2361;49.540;8.390;2023-08-30T07:31:08;22.70;99.90
4695;DHT22;2361;49.540;8.390;2023-08-30T07:33:35;22.60;99.90
4695;DHT22;2361;49.540;8.390;2023-08-30T07:36:02;22.60;99.90
4695;DHT22;2361;49.540;8.390;2023-08-30T07:38:29;22.70;99.90
4695;DHT22;2361;49.540;8.390;2023-08-30T07:40:56;22.80;99.90
4695;DHT22;2361;49.540;8.390;2023-08-30T07:43:23;22.90;99.90
4695;DHT22;2361;49.540;8.390;2023-08-30T07:45:50;22.90;99.90
4695;DHT22;2361;49.540;8.390;2023-08-30T07:48:17;23.10;99.90
4695;DHT22;2361;49.540;8.390;2023-08-30T07:50:44;23.20;99.90
4695;DHT22;2361;49.540;8.390;2023-08-30T07:53:11;23.30;99.90
4695;DHT22;2361;49.540;8.390;2023-08-30T07:55:38;23.40;99.90
4695;DHT22;2361;49.540;8.390;2023-08-30T07:58:06;23.60;99.90
4695;DHT22;2361;49.540;8.390;2023-08-30T08:00:36;23.70;99.90
4695;DHT22;2361;49.540;8.390;2023-08-30T08:03:03;23.50;99.90
4695;DHT22;2361;49.540;8.390;2023-08-30T08:05:30;23.60;99.90
4695;DHT22;2361;49.540;8.390;2023-08-30T08:08:00;23.90;99.90
4695;DHT22;2361;49.540;8.390;2023-08-30T08:10:33;24.10;99.90
4695;DHT22;2361;49.540;8.390;2023-08-30T08:13:00;24.60;99.90
4695;DHT22;2361;49.540;8.390;2023-08-30T08:15:28;25.00;99.90
4695;DHT22;2361;49.540;8.390;2023-08-30T08:17:57;25.30;99.90
4695;DHT22;2361;49.540;8.390;2023-08-30T08:20:24;25.40;99.90
4695;DHT22;2361;49.540;8.390;2023-08-30T08:22:51;25.70;99.90
4695;DHT22;2361;49.540;8.390;2023-08-30T08:25:18;25.80;99.90
4695;DHT22;2361;49.540;8.390;2023-08-30T08:27:47;25.80;99.90
4695;DHT22;2361;49.540;8.390;2023-08-30T08:30:14;25.80;99.90
4695;DHT22;2361;49.540;8.390;2023-08-30T08:32:41;25.90;99.90
4695;DHT22;2361;49.540;8.390;2023-08-30T08:35:08;25.90;99.90
4695;DHT22;2361;49.540;8.390;2023-08-30T08:37:35;26.20;99.90
4695;DHT22;2361;49.540;8.390;2023-08-30T08:40:02;26.10;99.90
4695;DHT22;2361;49.540;8.390;2023-08-30T08:42:35;26.40;99.90
4695;DHT22;2361;49.540;8.390;2023-08-30T08:45:03;26.80;99.90
4695;DHT22;2361;49.540;8.390;2023-08-30T08:47:31;27.10;99.90
4695;DHT22;2361;49.540;8.390;2023-08-30T08:49:59;26.90;99.90
4695;DHT22;2361;49.540;8.390;2023-08-30T08:52:30;26.50;99.90
4695;DHT22;2361;49.540;8.390;2023-08-30T08:55:09;26.00;99.90
4695;DHT22;2361;49.540;8.390;2023-08-30T08:57:38;26.00;99.90
4695;DHT22;2361;49.540;8.390;2023-08-30T09:00:05;26.20;99.90
4695;DHT22;2361;49.540;8.390;2023-08-30T09:02:33;26.50;99.90
4695;DHT22;2361;49.540;8.390;2023-08-30T09:05:00;26.40;99.90
4695;DHT22;2361;49.540;8.390;2023-08-30T09:07:28;26.30;99.90
4695;DHT22;2361;49.540;8.390;2023-08-30T09:09:57;26.20;99.90
4695;DHT22;2361;49.540;8.390;2023-08-30T09:12:24;26.40;99.90
4695;DHT22;2361;49.540;8.390;2023-08-30T09:14:55;26.40;99.90
4695;DHT22;2361;49.540;8.390;2023-08-30T09:17:23;26.20;99.90
4695;DHT22;2361;49.540;8.390;2023-08-30T09:19:51;25.70;99.90
4695;DHT22;2361;49.540;8.390;2023-08-30T09:22:18;25.40;99.90
4695;DHT22;2361;49.540;8.390;2023-08-30T09:24:45;25.00;99.90
4695;DHT22;2361;49.540;8.390;2023-08-30T09:27:12;24.60;99.90
4695;DHT22;2361;49.540;8.390;2023-08-30T09:29:39;24.20;99.90
4695;DHT22;2361;49.540;8.390;2023-08-30T09:32:07;23.90;99.90
4695;DHT22;2361;49.540;8.390;2023-08-30T09:34:34;23.60;99.90
4695;DHT22;2361;49.540;8.390;2023-08-30T09:37:01;23.50;99.90
4695;DHT22;2361;49.540;8.390;2023-08-30T09:39:33;23.30;99.90
4695;DHT22;2361;49.540;8.390;2023-08-30T09:42:00;23.20;99.90
4695;DHT22;2361;49.540;8.390;2023-08-30T09:44:29;23.40;99.90
4695;DHT22;2361;49.540;8.390;2023-08-30T09:46:57;23.60;99.90
4695;DHT22;2361;49.540;8.390;2023-08-30T09:49:26;23.70;99.90
4695;DHT22;2361;49.540;8.390;2023-08-30T09:51:54;23.40;99.90
4695;DHT22;2361;49.540;8.390;2023-08-30T09:54:23;23.20;99.90
4695;DHT22;2361;49.540;8.390;2023-08-30T09:56:54;23.20;99.90
4695;DHT22;2361;49.540;8.390;2023-08-30T09:59:24;23.00;99.90
4695;DHT22;2361;49.540;8.390;2023-08-30T10:01:52;23.00;99.90
4695;DHT22;2361;49.540;8.390;2023-08-30T10:04:21;23.10;99.90
4695;DHT22;2361;49.540;8.390;2023-08-30T10:06:49;23.10;99.90
4695;DHT22;2361;49.540;8.390;2023-08-30T10:09:16;23.10;99.90
4695;DHT22;2361;49.540;8.390;2023-08-30T10:11:46;23.30;99.90
4695;DHT22;2361;49.540;8.390;2023-08-30T10:14:14;23.50;99.90
4695;DHT22;2361;49.540;8.390;2023-08-30T10:16:46;23.90;99.90
4695;DHT22;2361;49.540;8.390;2023-08-30T10:19:24;24.40;99.90
4695;DHT22;2361;49.540;8.390;2023-08-30T10:22:13;24.90;99.90
4695;DHT22;2361;49.540;8.390;2023-08-30T10:24:54;25.00;99.90
4695;DHT22;2361;49.540;8.390;2023-08-30T10:27:41;24.90;99.90
4695;DHT22;2361;49.540;8.390;2023-08-30T10:30:12;24.70;99.90
4695;DHT22;2361;49.540;8.390;2023-08-30T10:32:44;24.40;99.90
4695;DHT22;2361;49.540;8.390;2023-08-30T10:35:13;24.20;99.90
4695;DHT22;2361;49.540;8.390;2023-08-30T10:37:42;23.90;99.90
4695;DHT22;2361;49.540;8.390;2023-08-30T10:40:09;23.70;99.90
4695;DHT22;2361;49.540;8.390;2023-08-30T10:42:37;23.70;99.90
4695;DHT22;2361;49.540;8.390;2023-08-30T10:45:06;23.60;99.90
4695;DHT22;2361;49.540;8.390;2023-08-30T10:47:37;23.40;99.90
4695;DHT22;2361;49.540;8.390;2023-08-30T10:50:15;23.30;99.90
4695;DHT22;2361;49.540;8.390;2023-08-30T10:52:42;23.40;99.90
4695;DHT22;2361;49.540;8.390;2023-08-30T10:55:15;23.50;99.90
4695;DHT22;2361;49.540;8.390;2023-08-30T10:57:44;23.40;99.90
4695;DHT22;2361;49.540;8.390;2023-08-30T11:02:46;23.40;99.90
4695;DHT22;2361;49.540;8.390;2023-08-30T11:05:21;23.40;99.90
4695;DHT22;2361;49.540;8.390;2023-08-30T11:07:50;23.40;99.90
4695;DHT22;2361;49.540;8.390;2023-08-30T11:10:18;23.30;99.90
4695;DHT22;2361;49.540;8.390;2023-08-30T11:12:46;23.20;99.90
4695;DHT22;2361;49.540;8.390;2023-08-30T11:15:16;23.10;99.90
4695;DHT22;2361;49.540;8.390;2023-08-30T11:17:44;23.10;99.90
4695;DHT22;2361;49.540;8.390;2023-08-30T11:20:15;23.10;99.90
4695;DHT22;2361;49.540;8.390;2023-08-30T11:22:48;23.10;99.90
4695;DHT22;2361;49.540;8.390;2023-08-30T11:25:16;23.10;99.90
4695;DHT22;2361;49.540;8.390;2023-08-30T11:27:44;23.10;99.90
4695;DHT22;2361;49.540;8.390;2023-08-30T11:30:12;23.10;99.90
4695;DHT22;2361;49.540;8.390;2023-08-30T11:32:40;23.10;99.90
4695;DHT22;2361;49.540;8.390;2023-08-30T11:35:12;23.00;99.90
4695;DHT22;2361;49.540;8.390;2023-08-30T11:37:40;23.10;99.90
4695;DHT22;2361;49.540;8.390;2023-08-30T11:40:08;23.10;99.90
4695;DHT22;2361;49.540;8.390;2023-08-30T11:42:37;23.20;99.90
4695;DHT22;2361;49.540;8.390;2023-08-30T11:45:05;23.20;99.90
4695;DHT22;2361;49.540;8.390;2023-08-30T11:47:32;23.30;99.90
4695;DHT22;2361;49.540;8.390;2023-08-30T11:50:01;23.40;99.90
4695;DHT22;2361;49.540;8.390;2023-08-30T11:52:28;23.50;99.90
4695;DHT22;2361;49.540;8.390;2023-08-30T11:54:55;23.60;99.90
4695;DHT22;2361;49.540;8.390;2023-08-30T11:57:23;23.60;99.90
4695;DHT22;2361;49.540;8.390;2023-08-30T11:59:50;23.50;99.90
4695;DHT22;2361;49.540;8.390;2023-08-30T12:02:17;23.40;99.90
4695;DHT22;2361;49.540;8.390;2023-08-30T12:04:46;23.40;99.90
4695;DHT22;2361;49.540;8.390;2023-08-30T12:07:24;23.40;99.90
4695;DHT22;2361;49.540;8.390;2023-08-30T12:10:09;23.30;99.90
4695;DHT22;2361;49.540;8.390;2023-08-30T12:12:37;23.30;99.90
4695;DHT22;2361;49.540;8.390;2023-08-30T12:15:08;23.20;99.90
4695;DHT22;2361;49.540;8.390;2023-08-30T12:17:36;23.10;99.90
4695;DHT22;2361;49.540;8.390;2023-08-30T12:20:04;23.10;99.90
4695;DHT22;2361;49.540;8.390;2023-08-30T12:22:41;23.10;99.90
4695;DHT22;2361;49.540;8.390;2023-08-30T12:25:17;23.10;99.90
4695;DHT22;2361;49.540;8.390;2023-08-30T12:27:45;23.10;99.90
4695;DHT22;2361;49.540;8.390;2023-08-30T12:30:16;23.00;99.90
4695;DHT22;2361;49.540;8.390;2023-08-30T12:32:45;23.10;99.90
4695;DHT22;2361;49.540;8.390;2023-08-30T12:35:12;23.20;99.90
4695;DHT22;2361;49.540;8.390;2023-08-30T12:37:39;23.30;99.90
4695;DHT22;2361;49.540;8.390;2023-08-30T12:40:07;23.30;99.80
4695;DHT22;2361;49.540;8.390;2023-08-30T12:42:34;23.30;99.20
4695;DHT22;2361;49.540;8.390;2023-08-30T12:45:01;23.20;99.20
4695;DHT22;2361;49.540;8.390;2023-08-30T12:47:30;23.20;99.60
4695;DHT22;2361;49.540;8.390;2023-08-30T12:49:57;23.30;98.80
4695;DHT22;2361;49.540;8.390;2023-08-30T12:52:24;23.40;98.50
4695;DHT22;2361;49.540;8.390;2023-08-30T12:54:50;23.50;97.90
4695;DHT22;2361;49.540;8.390;2023-08-30T12:57:18;23.60;97.90
4695;DHT22;2361;49.540;8.390;2023-08-30T12:59:45;23.60;97.00
4695;DHT22;2361;49.540;8.390;2023-08-30T13:02:13;23.50;97.10
4695;DHT22;2361;49.540;8.390;2023-08-30T13:04:40;23.40;97.30
4695;DHT22;2361;49.540;8.390;2023-08-30T13:07:07;23.40;97.30
4695;DHT22;2361;49.540;8.390;2023-08-30T13:09:34;23.50;96.90
4695;DHT22;2361;49.540;8.390;2023-08-30T13:12:01;23.50;96.20
4695;DHT22;2361;49.540;8.390;2023-08-30T13:14:28;23.60;95.60
4695;DHT22;2361;49.540;8.390;2023-08-30T13:16:56;23.60;95.40
4695;DHT22;2361;49.540;8.390;2023-08-30T13:19:23;23.60;94.70
4695;DHT22;2361;49.540;8.390;2023-08-30T13:21:50;23.60;94.30
4695;DHT22;2361;49.540;8.390;2023-08-30T13:24:17;23.50;94.50
4695;DHT22;2361;49.540;8.390;2023-08-30T13:26:44;23.50;94.00
4695;DHT22;2361;49.540;8.390;2023-08-30T13:29:11;23.50;93.30
4695;DHT22;2361;49.540;8.390;2023-08-30T13:31:38;23.50;93.40
4695;DHT22;2361;49.540;8.390;2023-08-30T13:34:05;23.60;93.30
4695;DHT22;2361;49.540;8.390;2023-08-30T13:36:32;23.70;93.30
4695;DHT22;2361;49.540;8.390;2023-08-30T13:38:59;23.70;93.20
4695;DHT22;2361;49.540;8.390;2023-08-30T13:41:26;23.70;93.00
4695;DHT22;2361;49.540;8.390;2023-08-30T13:43:53;23.70;92.60
4695;DHT22;2361;49.540;8.390;2023-08-30T13:46:24;23.70;92.60
4695;DHT22;2361;49.540;8.390;2023-08-30T13:48:51;23.70;92.50
4695;DHT22;2361;49.540;8.390;2023-08-30T13:51:22;23.60;92.50
4695;DHT22;2361;49.540;8.390;2023-08-30T13:53:50;23.60;92.60
4695;DHT22;2361;49.540;8.390;2023-08-30T13:56:19;23.60;92.90
4695;DHT22;2361;49.540;8.390;2023-08-30T13:58:46;23.60;93.00
4695;DHT22;2361;49.540;8.390;2023-08-30T14:01:13;23.60;93.10
4695;DHT22;2361;49.540;8.390;2023-08-30T14:03:40;23.50;92.80
4695;DHT22;2361;49.540;8.390;2023-08-30T14:06:08;23.40;93.00
4695;DHT22;2361;49.540;8.390;2023-08-30T14:08:35;23.40;93.20
4695;DHT22;2361;49.540;8.390;2023-08-30T14:11:02;23.40;93.30
4695;DHT22;2361;49.540;8.390;2023-08-30T14:13:32;23.40;93.60
4695;DHT22;2361;49.540;8.390;2023-08-30T14:16:01;23.50;93.80
4695;DHT22;2361;49.540;8.390;2023-08-30T14:18:29;23.60;93.90
4695;DHT22;2361;49.540;8.390;2023-08-30T14:21:00;23.70;93.70
4695;DHT22;2361;49.540;8.390;2023-08-30T14:23:29;23.70;93.50
4695;DHT22;2361;49.540;8.390;2023-08-30T14:26:02;23.70;93.50
4695;DHT22;2361;49.540;8.390;2023-08-30T14:28:39;23.70;93.40
4695;DHT22;2361;49.540;8.390;2023-08-30T14:31:10;23.70;92.80
4695;DHT22;2361;49.540;8.390;2023-08-30T14:33:39;23.70;92.10
4695;DHT22;2361;49.540;8.390;2023-08-30T14:36:09;23.60;91.80
4695;DHT22;2361;49.540;8.390;2023-08-30T14:38:37;23.60;92.00
4695;DHT22;2361;49.540;8.390;2023-08-30T14:41:04;23.60;92.10
4695;DHT22;2361;49.540;8.390;2023-08-30T14:43:32;23.60;91.90
4695;DHT22;2361;49.540;8.390;2023-08-30T14:46:03;23.60;92.00
4695;DHT22;2361;49.540;8.390;2023-08-30T14:48:37;23.60;91.90
4695;DHT22;2361;49.540;8.390;2023-08-30T14:51:05;23.50;92.00
4695;DHT22;2361;49.540;8.390;2023-08-30T14:53:33;23.40;92.40
4695;DHT22;2361;49.540;8.390;2023-08-30T14:56:02;23.30;92.90
4695;DHT22;2361;49.540;8.390;2023-08-30T14:58:34;23.30;93.10
4695;DHT22;2361;49.540;8.390;2023-08-30T15:01:03;23.30;93.30
4695;DHT22;2361;49.540;8.390;2023-08-30T15:03:30;23.20;93.40
4695;DHT22;2361;49.540;8.390;2023-08-30T15:05:58;23.30;93.70
4695;DHT22;2361;49.540;8.390;2023-08-30T15:08:25;23.30;93.70
4695;DHT22;2361;49.540;8.390;2023-08-30T15:10:52;23.20;94.00
4695;DHT22;2361;49.540;8.390;2023-08-30T15:13:20;23.20;94.10
4695;DHT22;2361;49.540;8.390;2023-08-30T15:15:47;23.20;94.20
4695;DHT22;2361;49.540;8.390;2023-08-30T15:18:15;23.20;94.40
4695;DHT22;2361;49.540;8.390;2023-08-30T15:20:43;23.20;94.50
4695;DHT22;2361;49.540;8.390;2023-08-30T15:23:12;23.10;94.70
4695;DHT22;2361;49.540;8.390;2023-08-30T15:25:47;23.10;94.90
4695;DHT22;2361;49.540;8.390;2023-08-30T15:28:16;23.10;95.20
4695;DHT22;2361;49.540;8.390;2023-08-30T15:30:44;23.10;95.60
4695;DHT22;2361;49.540;8.390;2023-08-30T15:33:12;23.10;95.40
4695;DHT22;2361;49.540;8.390;2023-08-30T15:35:46;23.10;95.20
4695;DHT22;2361;49.540;8.390;2023-08-30T15:38:13;23.10;95.30
4695;DHT22;2361;49.540;8.390;2023-08-30T15:40:41;23.10;95.20
4695;DHT22;2361;49.540;8.390;2023-08-30T15:43:08;23.20;94.70
4695;DHT22;2361;49.540;8.390;2023-08-30T15:45:35;23.20;94.50
4695;DHT22;2361;49.540;8.390;2023-08-30T15:48:03;23.20;94.40
4695;DHT22;2361;49.540;8.390;2023-08-30T15:50:30;23.20;94.30
4695;DHT22;2361;49.540;8.390;2023-08-30T15:52:57;23.10;94.70
4695;DHT22;2361;49.540;8.390;2023-08-30T15:55:24;23.10;94.70
4695;DHT22;2361;49.540;8.390;2023-08-30T15:57:55;23.10;94.90
4695;DHT22;2361;49.540;8.390;2023-08-30T16:00:22;23.20;94.60
4695;DHT22;2361;49.540;8.390;2023-08-30T16:02:50;23.30;94.60
4695;DHT22;2361;49.540;8.390;2023-08-30T16:05:20;23.30;94.70
4695;DHT22;2361;49.540;8.390;2023-08-30T16:07:47;23.20;94.60
4695;DHT22;2361;49.540;8.390;2023-08-30T16:10:13;23.20;94.70
4695;DHT22;2361;49.540;8.390;2023-08-30T16:12:40;23.20;95.00
4695;DHT22;2361;49.540;8.390;2023-08-30T16:15:08;23.10;95.20